Time;durP1;ratioP1;P1;durP2;ratioP2;P2;SDS_P1;SDS_P2;PMS_P1;PMS_P2;Temp;Humidity;BMP_temperature;BMP_pressure;BME280_temperature;BME280_humidity;BME280_pressure;Samples;Min_cycle;Max_cycle;Signal;HPM_P1;HPM_P2
2021/06/26 00:00:59;;;;;;;7.75;4.12;;;;;;;28.10;50.11;99542.59;1724965;82;21015;-72
2021/06/26 00:03:27;;;;;;;5.28;3.15;;;;;;;28.08;50.41;99543.43;1735800;81;21502;-71
2021/06/26 00:05:54;;;;;;;11.15;3.72;;;;;;;28.06;50.63;99539.61;1724549;81;21026;-71
2021/06/26 00:08:23;;;;;;;9.33;3.72;;;;;;;28.06;51.04;99540.98;1722238;82;21148;-71
2021/06/26 00:10:50;;;;;;;10.93;4.53;;;;;;;28.04;51.42;99531.71;1739464;82;21078;-71
2021/06/26 00:13:17;;;;;;;8.03;3.55;;;;;;;28.03;51.61;99515.08;1729967;82;21077;-70
2021/06/26 00:15:45;;;;;;;11.97;4.25;;;;;;;28.04;51.90;99524.08;1728428;81;21141;-70
2021/06/26 00:18:12;;;;;;;9.55;4.35;;;;;;;28.02;52.21;99524.36;1739149;81;21038;-69
2021/06/26 00:20:39;;;;;;;12.10;4.28;;;;;;;28.02;52.61;99528.45;1723354;80;21138;-70
2021/06/26 00:23:05;;;;;;;11.68;4.28;;;;;;;28.02;53.16;99525.73;1722292;82;21042;-69
2021/06/26 00:25:32;;;;;;;8.95;3.83;;;;;;;28.02;53.50;99536.64;1731811;82;21086;-69
2021/06/26 00:27:59;;;;;;;10.28;4.90;;;;;;;28.00;53.76;99530.66;1739452;82;21089;-70
2021/06/26 00:30:26;;;;;;;10.68;4.62;;;;;;;28.00;53.78;99529.30;1735888;81;21037;-70
2021/06/26 00:32:53;;;;;;;9.98;5.53;;;;;;;28.00;53.94;99517.02;1726005;81;21280;-70
2021/06/26 00:35:20;;;;;;;13.83;4.80;;;;;;;27.98;53.88;99521.95;1734259;82;21185;-71
2021/06/26 00:37:47;;;;;;;8.45;4.83;;;;;;;27.98;53.78;99523.88;1714017;82;21037;-71
2021/06/26 00:40:14;;;;;;;11.00;4.87;;;;;;;27.97;53.75;99516.24;1733572;81;21046;-70
2021/06/26 00:42:43;;;;;;;11.40;4.87;;;;;;;27.97;53.66;99516.24;1730168;82;21145;-68
2021/06/26 00:45:13;;;;;;;12.07;5.00;;;;;;;27.96;53.54;99517.33;1722681;82;21093;-70
2021/06/26 00:47:40;;;;;;;16.62;5.47;;;;;;;27.95;53.45;99514.89;1717978;82;21054;-70
2021/06/26 00:50:17;;;;;;;10.03;4.83;;;;;;;27.94;53.44;99516.81;1732330;82;21019;-70
2021/06/26 00:52:43;;;;;;;8.35;4.83;;;;;;;27.92;53.38;99519.02;1722775;82;21050;-70
2021/06/26 00:55:10;;;;;;;11.88;4.85;;;;;;;27.91;53.35;99521.50;1722902;82;21042;-72
2021/06/26 00:57:42;;;;;;;10.30;4.70;;;;;;;27.90;53.31;99515.77;1741085;81;21129;-72
2021/06/26 01:00:10;;;;;;;10.55;4.95;;;;;;;27.88;53.32;99515.23;1722287;82;21070;-69
2021/06/26 01:02:37;;;;;;;11.50;4.53;;;;;;;27.87;53.27;99513.56;1740598;81;21050;-71
2021/06/26 01:05:04;;;;;;;10.75;4.78;;;;;;;27.88;53.25;99515.77;1727325;82;21026;-70
2021/06/26 01:07:31;;;;;;;7.33;4.05;;;;;;;27.88;53.08;99517.13;1734851;81;21007;-68
2021/06/26 01:09:57;;;;;;;9.85;4.70;;;;;;;27.87;53.04;99519.03;1729473;82;21143;-69
2021/06/26 01:12:24;;;;;;;8.98;4.40;;;;;;;27.87;52.95;99520.39;1729916;82;21045;-68
2021/06/26 01:14:52;;;;;;;6.80;4.53;;;;;;;27.85;52.84;99517.14;1727551;82;21006;-68
2021/06/26 01:17:20;;;;;;;11.97;4.53;;;;;;;27.83;52.81;99514.72;1736005;81;21509;-68
2021/06/26 01:19:46;;;;;;;9.13;4.08;;;;;;;27.83;52.73;99512.52;1725201;82;21085;-70
2021/06/26 01:22:15;;;;;;;7.15;4.17;;;;;;;27.81;52.52;99521.55;1733738;81;21023;-71
2021/06/26 01:24:41;;;;;;;7.62;4.65;;;;;;;27.80;52.41;99526.76;1737440;81;21062;-69
2021/06/26 01:27:07;;;;;;;9.75;3.90;;;;;;;27.79;52.43;99534.11;1724460;81;21033;-71
2021/06/26 01:29:34;;;;;;;4.55;3.80;;;;;;;27.78;52.43;99537.16;1728485;82;21046;-70
2021/06/26 01:32:00;;;;;;;6.42;4.25;;;;;;;27.78;52.18;99532.50;1726639;81;20999;-70
2021/06/26 01:34:27;;;;;;;7.85;3.95;;;;;;;27.77;52.23;99538.24;1731203;82;21062;-71
2021/06/26 01:36:54;;;;;;;7.40;3.70;;;;;;;27.76;52.20;99532.53;1747705;81;21491;-71
2021/06/26 01:39:21;;;;;;;7.40;3.98;;;;;;;27.75;51.97;99526.80;1727384;81;21478;-70
2021/06/26 01:41:47;;;;;;;10.10;4.30;;;;;;;27.74;51.66;99516.97;1745973;81;21507;-70
2021/06/26 01:44:14;;;;;;;6.75;4.03;;;;;;;27.72;51.49;99526.83;1743001;81;21034;-70
2021/06/26 01:46:41;;;;;;;6.87;3.83;;;;;;;27.71;51.33;99523.02;1735292;80;21139;-71
2021/06/26 01:49:13;;;;;;;8.03;3.37;;;;;;;27.70;51.21;99523.58;1728295;81;21049;-72
2021/06/26 01:51:39;;;;;;;6.58;3.20;;;;;;;27.67;51.04;99519.23;1731906;81;21576;-68
2021/06/26 01:54:07;;;;;;;10.20;3.55;;;;;;;27.67;51.03;99510.50;1734386;81;21096;-71
2021/06/26 01:56:36;;;;;;;11.20;3.30;;;;;;;27.64;50.96;99506.44;1728124;81;21122;-70
2021/06/26 01:59:03;;;;;;;4.72;2.87;;;;;;;27.65;50.93;99506.69;1729580;81;21840;-70
2021/06/26 02:01:32;;;;;;;6.83;3.62;;;;;;;27.62;50.85;99501.82;1733554;81;21029;-70
2021/06/26 02:03:59;;;;;;;4.87;3.27;;;;;;;27.61;50.83;99502.91;1721893;81;21513;-71
2021/06/26 02:06:26;;;;;;;8.10;3.77;;;;;;;27.59;50.99;99499.65;1733926;81;21505;-71
2021/06/26 02:08:52;;;;;;;6.30;3.35;;;;;;;27.59;50.93;99507.84;1743389;81;21041;-72
2021/06/26 02:11:18;;;;;;;7.40;3.20;;;;;;;27.59;51.04;99508.39;1753059;81;21494;-71
2021/06/26 02:13:45;;;;;;;4.37;3.00;;;;;;;27.58;50.83;99506.23;1752600;81;21612;-72
2021/06/26 02:16:11;;;;;;;7.95;3.65;;;;;;;27.57;50.76;99511.41;1747777;81;21042;-71
2021/06/26 02:18:39;;;;;;;6.03;3.30;;;;;;;27.56;50.83;99502.94;1735045;81;21081;-71
2021/06/26 02:21:06;;;;;;;6.87;3.50;;;;;;;27.54;50.99;99507.88;1734230;81;21505;-70
2021/06/26 02:23:34;;;;;;;11.45;3.70;;;;;;;27.53;51.00;99500.80;1744607;81;21602;-70
2021/06/26 02:26:00;;;;;;;6.95;3.20;;;;;;;27.51;50.85;99493.45;1735306;81;21069;-71
2021/06/26 02:28:26;;;;;;;7.60;4.22;;;;;;;27.50;50.91;99489.09;1752408;81;21093;-71
2021/06/26 02:30:53;;;;;;;6.65;3.60;;;;;;;27.50;50.97;99485.00;1742944;81;21045;-71
2021/06/26 02:33:19;;;;;;;7.30;3.65;;;;;;;27.49;50.98;99481.19;1726856;81;21289;-71
2021/06/26 02:35:46;;;;;;;7.10;3.90;;;;;;;27.48;50.99;99476.29;1730319;80;22019;-71
2021/06/26 02:38:12;;;;;;;8.03;3.58;;;;;;;27.48;50.99;99476.29;1745263;81;21041;-71
2021/06/26 02:40:40;;;;;;;7.10;3.70;;;;;;;27.46;51.11;99484.75;1753764;81;21014;-71
2021/06/26 02:43:07;;;;;;;8.40;3.70;;;;;;;27.47;51.05;99482.86;1738378;81;21022;-72
2021/06/26 02:45:33;;;;;;;11.85;3.95;;;;;;;27.46;51.00;99480.66;1753574;81;21115;-72
2021/06/26 02:47:59;;;;;;;5.40;3.37;;;;;;;27.46;51.01;99482.58;1740203;81;21108;-71
2021/06/26 02:50:26;;;;;;;5.78;4.00;;;;;;;27.45;51.07;99479.61;1739044;81;21070;-70
2021/06/26 02:52:52;;;;;;;5.20;3.22;;;;;;;27.43;51.09;99473.06;1743097;81;20998;-70
2021/06/26 02:55:19;;;;;;;8.83;4.15;;;;;;;27.43;51.55;99477.72;1751723;81;21557;-70
2021/06/26 02:57:45;;;;;;;7.10;3.60;;;;;;;27.42;51.48;99480.16;1734769;81;21486;-71
2021/06/26 03:00:12;;;;;;;5.72;3.80;;;;;;;27.41;51.50;99467.62;1734215;81;21165;-71
2021/06/26 03:02:40;;;;;;;7.40;3.70;;;;;;;27.41;51.40;99470.34;1763684;80;21095;-70
2021/06/26 03:05:08;;;;;;;8.08;3.75;;;;;;;27.39;51.43;99472.02;1733170;81;21030;-69
2021/06/26 03:07:35;;;;;;;6.97;3.67;;;;;;;27.40;52.56;99466.81;1736715;80;21022;-68
2021/06/26 03:10:02;;;;;;;5.75;3.75;;;;;;;27.41;53.27;99473.07;1743623;81;21509;-64
2021/06/26 03:12:29;;;;;;;5.05;2.98;;;;;;;27.44;54.47;99474.68;1734579;81;21225;-70
2021/06/26 03:14:55;;;;;;;6.78;3.50;;;;;;;27.50;55.08;99467.27;1747315;81;21108;-69
2021/06/26 03:17:22;;;;;;;4.80;3.12;;;;;;;27.56;55.79;99462.58;1740880;81;21006;-74
2021/06/26 03:19:49;;;;;;;3.72;2.92;;;;;;;27.62;55.91;99462.26;1746814;81;21077;-77
2021/06/26 03:22:15;;;;;;;5.03;3.17;;;;;;;27.70;55.86;99457.25;1742761;81;21632;-73
2021/06/26 03:24:42;;;;;;;4.35;3.10;;;;;;;27.76;55.04;99458.29;1735762;81;21517;-74
2021/06/26 03:27:08;;;;;;;8.25;3.55;;;;;;;27.81;54.69;99458.77;1743148;81;21518;-74
2021/06/26 03:29:35;;;;;;;9.45;7.72;;;;;;;27.84;54.30;99461.75;1729239;81;21055;-70
2021/06/26 03:32:02;;;;;;;8.88;5.78;;;;;;;27.88;53.75;99457.92;1744724;80;21171;-70
2021/06/26 03:34:28;;;;;;;10.60;6.20;;;;;;;27.89;53.41;99454.63;1731876;81;21061;-70
2021/06/26 03:36:54;;;;;;;10.65;6.33;;;;;;;27.92;53.08;99453.50;1737663;81;21105;-71
2021/06/26 03:39:20;;;;;;;9.15;5.35;;;;;;;27.94;52.83;99452.66;1727827;82;21030;-74
2021/06/26 03:41:48;;;;;;;6.47;5.87;;;;;;;27.95;52.68;99447.47;1729559;82;21035;-73
2021/06/26 03:44:14;;;;;;;9.70;6.20;;;;;;;27.97;52.44;99454.82;1723959;82;21006;-72
2021/06/26 03:46:41;;;;;;;11.45;5.40;;;;;;;27.98;52.35;99449.61;1720754;81;21482;-72
2021/06/26 03:49:08;;;;;;;9.18;5.08;;;;;;;27.99;52.23;99452.61;1739130;82;22333;-70
2021/06/26 03:51:35;;;;;;;12.07;5.47;;;;;;;28.01;52.21;99448.23;1724877;81;21542;-72
2021/06/26 03:54:01;;;;;;;8.93;5.10;;;;;;;28.03;52.09;99449.56;1711324;82;21076;-71
2021/06/26 03:56:28;;;;;;;7.75;4.70;;;;;;;28.05;52.00;99453.37;1725029;82;21089;-71
2021/06/26 03:58:54;;;;;;;10.20;4.72;;;;;;;28.08;52.00;99445.14;1723178;82;21120;-73
2021/06/26 04:01:21;;;;;;;12.07;4.90;;;;;;;28.08;51.94;99445.94;1716659;82;21133;-69
2021/06/26 04:03:48;;;;;;;8.18;4.78;;;;;;;28.10;51.87;99449.19;1725188;82;21110;-72
2021/06/26 04:06:15;;;;;;;8.78;4.58;;;;;;;28.11;51.88;99445.37;1716223;82;21081;-73
2021/06/26 04:08:43;;;;;;;13.10;5.28;;;;;;;28.14;51.87;99441.23;1731160;82;21589;-73
2021/06/26 04:11:10;;;;;;;10.05;4.97;;;;;;;28.15;51.86;99438.78;1720609;81;21200;-73
2021/06/26 04:13:37;;;;;;;9.70;4.58;;;;;;;28.17;52.17;99433.84;1733810;82;21214;-73
2021/06/26 04:16:04;;;;;;;6.05;4.40;;;;;;;28.18;51.89;99431.34;1737824;82;21121;-73
2021/06/26 04:18:31;;;;;;;8.63;5.35;;;;;;;28.19;51.83;99431.06;1720906;82;21070;-73
2021/06/26 04:20:58;;;;;;;7.85;5.10;;;;;;;28.21;51.80;99431.58;1734469;82;21058;-73
2021/06/26 04:23:25;;;;;;;10.48;5.15;;;;;;;28.24;51.79;99428.84;1720791;82;21073;-72
2021/06/26 04:25:53;;;;;;;11.08;6.33;;;;;;;28.28;52.07;99436.70;1717389;82;20995;-73
2021/06/26 04:28:19;;;;;;;9.10;5.08;;;;;;;28.32;52.11;99435.00;1720412;82;21111;-73
2021/06/26 04:30:47;;;;;;;10.53;5.50;;;;;;;28.36;51.92;99430.58;1728149;80;21046;-73
2021/06/26 04:33:13;;;;;;;9.75;5.17;;;;;;;28.40;51.81;99419.31;1741184;82;21090;-73
2021/06/26 04:35:40;;;;;;;8.25;5.25;;;;;;;28.44;52.02;99423.08;1738388;82;21093;-72
2021/06/26 04:38:07;;;;;;;10.10;5.80;;;;;;;28.49;51.95;99418.65;1729217;81;21059;-73
2021/06/26 04:40:34;;;;;;;9.03;4.92;;;;;;;28.53;51.74;99416.45;1740645;81;21010;-73
2021/06/26 04:43:00;;;;;;;7.75;5.05;;;;;;;28.59;51.61;99415.82;1748896;81;21485;-72
2021/06/26 04:45:26;;;;;;;11.33;5.22;;;;;;;28.66;51.46;99416.80;1733574;80;21092;-71
2021/06/26 04:47:53;;;;;;;10.50;4.95;;;;;;;28.71;51.37;99418.91;1744287;80;21127;-71
2021/06/26 04:50:19;;;;;;;6.55;4.62;;;;;;;28.76;51.32;99413.91;1736568;81;21149;-71
2021/06/26 04:52:48;;;;;;;8.25;5.22;;;;;;;28.80;51.27;99414.41;1734998;81;21532;-73
2021/06/26 04:55:15;;;;;;;10.10;5.20;;;;;;;28.85;51.34;99404.49;1747116;80;21540;-73
2021/06/26 04:57:41;;;;;;;9.98;5.20;;;;;;;28.90;51.23;99405.79;1726582;81;21521;-73
2021/06/26 05:00:08;;;;;;;9.08;5.47;;;;;;;28.94;51.23;99404.08;1732763;80;21205;-73
2021/06/26 05:02:35;;;;;;;7.72;4.78;;;;;;;28.99;51.23;99405.34;1748836;80;21099;-73
2021/06/26 05:05:02;;;;;;;9.58;5.20;;;;;;;29.03;51.07;99402.27;1733399;80;21029;-74
2021/06/26 05:07:29;;;;;;;11.12;6.25;;;;;;;29.07;51.12;99402.48;1738428;81;21557;-70
2021/06/26 05:09:57;;;;;;;11.60;5.72;;;;;;;29.10;51.10;99400.53;1750574;81;21065;-73
2021/06/26 05:12:23;;;;;;;6.65;4.78;;;;;;;29.12;51.09;99400.50;1731084;81;21117;-73
2021/06/26 05:14:51;;;;;;;10.58;6.12;;;;;;;29.15;51.02;99402.66;1755357;81;22006;-73
2021/06/26 05:17:17;;;;;;;7.55;5.55;;;;;;;29.17;51.06;99400.43;1741686;80;21604;-72
2021/06/26 05:19:45;;;;;;;7.85;5.17;;;;;;;29.18;51.04;99399.30;1727714;81;21501;-70
2021/06/26 05:22:13;;;;;;;6.90;4.17;;;;;;;29.19;51.69;99394.09;1734782;80;21140;-69
2021/06/26 05:24:40;;;;;;;5.45;4.05;;;;;;;29.20;51.50;99400.38;1731209;81;21034;-69
2021/06/26 05:27:07;;;;;;;6.20;3.65;;;;;;;29.19;50.81;99395.47;1736369;80;21569;-70
2021/06/26 05:29:39;;;;;;;5.03;3.35;;;;;;;29.20;49.70;99393.53;1729977;80;21140;-70
2021/06/26 05:32:03;;;;;;;7.35;3.60;;;;;;;29.18;48.57;99395.20;1735713;80;21033;-70
2021/06/26 05:34:29;;;;;;;4.00;3.27;;;;;;;29.17;47.56;99394.95;1738711;80;21038;-69
2021/06/26 05:36:57;;;;;;;5.85;2.90;;;;;;;29.17;46.61;99394.16;1740181;80;21144;-70
2021/06/26 05:39:23;;;;;;;6.05;3.30;;;;;;;29.16;47.01;99400.72;1736869;81;21156;-72
2021/06/26 05:41:50;;;;;;;4.83;3.50;;;;;;;29.14;46.08;99401.02;1746496;81;21584;-69
2021/06/26 05:44:16;;;;;;;3.77;2.80;;;;;;;29.14;45.70;99398.84;1745206;81;21516;-72
2021/06/26 05:46:43;;;;;;;4.20;2.77;;;;;;;29.11;44.82;99398.87;1733397;81;21066;-71
2021/06/26 05:49:09;;;;;;;6.28;3.37;;;;;;;29.10;44.27;99390.39;1745347;81;21005;-70
2021/06/26 05:51:35;;;;;;;5.22;3.40;;;;;;;29.09;43.78;99395.62;1734889;80;21784;-70
2021/06/26 05:54:02;;;;;;;6.97;4.22;;;;;;;29.07;43.27;99388.27;1729657;81;21046;-70
2021/06/26 05:56:28;;;;;;;7.95;4.03;;;;;;;29.06;42.88;99383.91;1737461;81;21006;-69
2021/06/26 05:58:54;;;;;;;5.05;3.62;;;;;;;29.06;42.72;99386.64;1730205;81;21100;-68
2021/06/26 06:01:21;;;;;;;6.55;3.87;;;;;;;29.05;42.40;99386.37;1751325;80;21014;-68
2021/06/26 06:03:47;;;;;;;6.28;3.37;;;;;;;29.05;43.25;99385.00;1745284;80;21255;-69
2021/06/26 06:06:14;;;;;;;8.35;4.22;;;;;;;29.05;43.61;99385.00;1755053;81;21018;-67
2021/06/26 06:08:42;;;;;;;4.97;3.20;;;;;;;29.07;43.51;99388.81;1737170;81;21013;-68
2021/06/26 06:11:08;;;;;;;4.85;3.40;;;;;;;29.06;42.96;99392.11;1735256;80;21632;-68
2021/06/26 06:13:35;;;;;;;6.35;3.70;;;;;;;29.05;42.65;99387.73;1739040;81;21533;-68
2021/06/26 06:16:01;;;;;;;5.08;3.30;;;;;;;29.05;42.09;99388.30;1727144;81;21092;-70
2021/06/26 06:18:28;;;;;;;5.58;3.70;;;;;;;29.04;41.71;99390.23;1743529;80;21081;-69
2021/06/26 06:20:54;;;;;;;5.25;3.30;;;;;;;29.04;41.35;99394.89;1742497;80;21085;-69
2021/06/26 06:23:20;;;;;;;6.97;3.17;;;;;;;29.02;41.04;99388.35;1730787;81;21063;-69
2021/06/26 06:25:47;;;;;;;6.30;3.50;;;;;;;29.01;40.77;99390.81;1742973;81;21046;-70
2021/06/26 06:28:13;;;;;;;4.75;3.25;;;;;;;29.01;40.45;99396.28;1742647;80;21145;-69
2021/06/26 06:30:40;;;;;;;3.87;2.95;;;;;;;29.00;40.21;99396.05;1744791;81;21065;-68
2021/06/26 06:33:06;;;;;;;6.75;3.50;;;;;;;28.99;40.05;99401.23;1729646;81;21041;-68
2021/06/26 06:35:33;;;;;;;5.20;2.95;;;;;;;28.99;39.82;99398.51;1730036;81;21035;-69
2021/06/26 06:38:00;;;;;;;5.28;3.30;;;;;;;28.98;39.65;99396.90;1722061;81;21046;-69
2021/06/26 06:40:27;;;;;;;5.22;3.12;;;;;;;28.96;39.70;99393.66;1732836;80;21105;-68
2021/06/26 06:42:53;;;;;;;5.50;3.05;;;;;;;28.95;39.33;99392.02;1740989;81;21585;-68
2021/06/26 06:45:20;;;;;;;5.33;3.30;;;;;;;28.93;39.46;99392.31;1721509;80;21109;-67
2021/06/26 06:47:46;;;;;;;3.20;2.75;;;;;;;28.94;39.32;99396.68;1742047;82;21038;-68
2021/06/26 06:50:12;;;;;;;5.25;3.42;;;;;;;28.93;38.94;99390.14;1723151;80;21125;-68
2021/06/26 06:52:39;;;;;;;3.67;2.72;;;;;;;28.92;38.80;99387.16;1735223;82;21127;-69
2021/06/26 06:55:08;;;;;;;4.22;3.17;;;;;;;28.92;38.61;99389.90;1722378;81;21042;-69
2021/06/26 06:57:34;;;;;;;4.10;2.60;;;;;;;28.90;38.59;99382.55;1717431;81;21070;-69
2021/06/26 07:00:01;;;;;;;4.58;2.50;;;;;;;28.90;38.47;99377.08;1735283;82;21031;-69
2021/06/26 07:02:27;;;;;;;2.92;2.35;;;;;;;28.90;38.32;99381.19;1728153;81;21110;-69
2021/06/26 07:04:54;;;;;;;4.05;2.60;;;;;;;28.89;38.09;99375.45;1727881;81;21099;-68
2021/06/26 07:07:20;;;;;;;5.47;2.65;;;;;;;28.88;38.43;99377.38;1722206;81;21518;-75
2021/06/26 07:09:46;;;;;;;3.27;2.40;;;;;;;28.88;39.07;99373.81;1723428;81;21069;-74
2021/06/26 07:12:14;;;;;;;3.37;2.70;;;;;;;28.89;40.72;99374.08;1718137;80;21046;-63
2021/06/26 07:14:42;;;;;;;3.52;2.60;;;;;;;28.92;42.74;99373.50;1723685;81;21130;-74
2021/06/26 07:17:08;;;;;;;4.30;2.40;;;;;;;28.95;43.02;99370.14;1740549;82;21138;-70
2021/06/26 07:19:35;;;;;;;4.05;2.42;;;;;;;29.00;41.60;99365.97;1724881;81;21577;-71
2021/06/26 07:22:03;;;;;;;3.67;2.42;;;;;;;29.04;40.08;99369.72;1716032;81;21597;-65
2021/06/26 07:24:29;;;;;;;5.15;2.67;;;;;;;29.05;38.49;99366.42;1723387;80;21026;-67
2021/06/26 07:26:57;;;;;;;2.80;2.30;;;;;;;28.94;37.19;99362.50;1736068;80;21109;-68
2021/06/26 07:29:24;;;;;;;4.28;2.30;;;;;;;28.79;36.27;99362.20;1725645;81;21141;-68
2021/06/26 07:31:50;;;;;;;2.40;2.20;;;;;;;28.62;36.93;99357.27;1727426;82;21077;-68
2021/06/26 07:34:16;;;;;;;4.72;2.70;;;;;;;28.49;38.90;99361.27;1739506;81;21052;-65
2021/06/26 07:36:43;;;;;;;3.75;2.20;;;;;;;28.38;40.70;99357.90;1723518;81;21030;-68
2021/06/26 07:39:10;;;;;;;2.25;2.00;;;;;;;28.28;42.34;99358.86;1746570;80;21060;-67
2021/06/26 07:41:36;;;;;;;2.98;2.27;;;;;;;28.20;44.12;99358.13;1747486;81;21546;-68
2021/06/26 07:44:02;;;;;;;4.67;2.70;;;;;;;28.16;45.24;99361.20;1745757;81;21006;-70
2021/06/26 07:46:29;;;;;;;3.98;3.45;;;;;;;28.11;46.48;99352.53;1746387;81;21065;-68
2021/06/26 07:48:55;;;;;;;6.62;6.00;;;;;;;28.08;47.58;99357.77;1747719;81;21009;-67
2021/06/26 07:51:22;;;;;;;9.53;7.50;;;;;;;28.07;48.82;99365.68;1752801;81;21037;-67
2021/06/26 07:53:48;;;;;;;8.50;7.70;;;;;;;28.04;50.08;99365.16;1744794;81;21898;-68
2021/06/26 07:56:15;;;;;;;9.95;9.03;;;;;;;28.06;51.31;99365.44;1756164;81;21141;-67
2021/06/26 07:58:41;;;;;;;11.38;10.38;;;;;;;28.07;52.32;99369.25;1743333;80;21132;-66
2021/06/26 08:01:07;;;;;;;17.62;14.73;;;;;;;28.08;52.20;99369.49;1735679;80;21549;-66
2021/06/26 08:03:34;;;;;;;17.12;15.50;;;;;;;28.09;50.96;99368.96;1741259;80;21526;-67
2021/06/26 08:06:00;;;;;;;19.05;17.37;;;;;;;28.08;49.64;99373.59;1737745;81;21534;-67
2021/06/26 08:08:27;;;;;;;21.15;19.15;;;;;;;28.04;48.04;99375.28;1738891;81;21037;-67
2021/06/26 08:10:55;;;;;;;19.57;17.75;;;;;;;27.99;46.52;99369.34;1741065;80;21085;-68
2021/06/26 08:13:23;;;;;;;18.62;16.87;;;;;;;27.97;46.90;99374.81;1756017;80;21038;-68
2021/06/26 08:15:49;;;;;;;19.40;17.70;;;;;;;27.99;47.64;99370.71;1755247;80;21038;-66
2021/06/26 08:18:16;;;;;;;17.95;16.35;;;;;;;28.05;47.32;99371.46;1742123;81;21082;-66
2021/06/26 08:20:43;;;;;;;17.50;15.98;;;;;;;28.13;47.53;99370.80;1748748;80;21133;-67
2021/06/26 08:23:09;;;;;;;18.45;16.95;;;;;;;28.23;47.58;99372.58;1745665;81;21038;-67
2021/06/26 08:25:36;;;;;;;17.65;16.05;;;;;;;28.31;47.68;99367.81;1734876;81;21038;-67
2021/06/26 08:28:02;;;;;;;17.77;16.17;;;;;;;28.41;48.07;99369.05;1739967;81;21528;-67
2021/06/26 08:30:30;;;;;;;17.10;15.63;;;;;;;28.51;48.34;99367.25;1747475;81;21135;-68
2021/06/26 08:32:57;;;;;;;17.35;15.75;;;;;;;28.59;48.68;99361.17;1751367;81;21065;-68
2021/06/26 08:35:23;;;;;;;15.70;14.23;;;;;;;28.71;48.95;99370.28;1741514;81;21079;-67
2021/06/26 08:37:50;;;;;;;16.05;14.50;;;;;;;28.78;49.15;99366.05;1730660;80;21109;-63
2021/06/26 08:40:18;;;;;;;16.15;14.73;;;;;;;28.87;49.28;99371.64;1742983;80;21089;-66
2021/06/26 08:42:44;;;;;;;17.52;14.95;;;;;;;28.94;49.53;99368.53;1754074;81;21125;-66
2021/06/26 08:45:15;;;;;;;15.65;14.15;;;;;;;29.02;49.81;99367.28;1743522;80;21026;-67
2021/06/26 08:47:41;;;;;;;15.80;14.15;;;;;;;29.12;49.98;99364.12;1748010;81;21081;-64
2021/06/26 08:50:09;;;;;;;14.90;13.60;;;;;;;29.18;50.06;99352.80;1739043;81;21183;-74
2021/06/26 08:52:35;;;;;;;14.55;13.25;;;;;;;29.27;50.38;99353.50;1748837;81;21077;-69
2021/06/26 08:55:02;;;;;;;15.03;13.65;;;;;;;29.33;50.61;99346.25;1732470;80;21182;-68
2021/06/26 08:57:41;;;;;;;14.18;12.98;;;;;;;29.39;50.41;99356.55;1735605;80;21085;-67
2021/06/26 09:00:12;;;;;;;13.75;12.45;;;;;;;29.47;50.16;99350.92;1741384;79;21053;-70
2021/06/26 09:02:39;;;;;;;12.90;11.70;;;;;;;29.52;50.18;99348.91;1729766;80;21057;-68
2021/06/26 09:05:07;;;;;;;14.00;12.18;;;;;;;29.57;50.25;99348.81;1740072;80;21124;-64
2021/06/26 09:07:38;;;;;;;12.95;11.85;;;;;;;29.64;50.13;99344.86;1730878;80;21165;-68
2021/06/26 09:10:17;;;;;;;12.45;11.25;;;;;;;29.68;49.97;99334.34;1726750;81;21577;-68
2021/06/26 09:12:45;;;;;;;12.25;11.15;;;;;;;29.73;49.87;99328.01;1736059;81;21163;-69
2021/06/26 09:15:25;;;;;;;12.20;11.05;;;;;;;29.77;49.77;99324.91;1729721;81;21549;-68
2021/06/26 09:17:55;;;;;;;11.10;10.10;;;;;;;29.81;49.69;99321.80;1729826;80;21092;-66
2021/06/26 09:20:36;;;;;;;12.78;11.53;;;;;;;29.84;49.61;99321.17;1726807;81;21128;-65
2021/06/26 09:23:04;;;;;;;11.43;10.53;;;;;;;29.88;49.50;99317.27;1726916;80;21062;-68
2021/06/26 09:25:36;;;;;;;11.85;10.78;;;;;;;29.91;49.43;99321.58;1728344;81;21097;-64
2021/06/26 09:28:08;;;;;;;11.12;10.03;;;;;;;29.95;49.72;99325.89;1736775;81;21116;-66
2021/06/26 09:30:40;;;;;;;12.33;10.93;;;;;;;29.97;49.49;99319.54;1731036;81;21077;-67
2021/06/26 09:33:12;;;;;;;11.78;10.60;;;;;;;30.01;49.83;99322.48;1740254;81;21084;-66
2021/06/26 09:35:39;;;;;;;12.75;11.28;;;;;;;30.03;49.92;99320.24;1745020;81;21549;-68
2021/06/26 09:38:08;;;;;;;15.70;13.10;;;;;;;30.06;50.24;99314.16;1748848;80;22079;-63
2021/06/26 09:40:36;;;;;;;21.23;15.35;;;;;;;30.09;50.29;99312.16;1736967;81;21081;-64
2021/06/26 09:43:02;;;;;;;18.23;16.40;;;;;;;30.12;50.55;99309.62;1729651;81;21632;-64
2021/06/26 09:45:28;;;;;;;20.12;15.93;;;;;;;30.16;50.65;99316.09;1746038;81;21363;-65
2021/06/26 09:47:55;;;;;;;17.10;15.30;;;;;;;30.21;50.72;99311.61;1748642;81;21147;-66
2021/06/26 09:50:25;;;;;;;18.07;15.60;;;;;;;30.24;50.77;99309.64;1728559;81;21097;-64
2021/06/26 09:54:43;;;;;;;18.35;16.42;;;;;;;30.35;50.72;99314.59;1871282;75;23265;-64
2021/06/26 09:57:10;;;;;;;18.00;16.12;;;;;;;30.31;50.73;99317.71;1824384;77;20980;-60
2021/06/26 09:59:36;;;;;;;16.70;13.55;;;;;;;30.36;51.44;99314.03;1783675;78;21189;-68
2021/06/26 10:02:03;;;;;;;18.87;11.97;;;;;;;30.42;52.65;99313.34;1817644;77;20988;-65
2021/06/26 10:04:29;;;;;;;16.42;13.13;;;;;;;30.46;52.26;99313.81;1824769;77;21501;-67
2021/06/26 10:06:56;;;;;;;18.35;12.88;;;;;;;30.48;51.29;99312.10;1823450;77;21051;-67
2021/06/26 10:09:24;;;;;;;15.20;12.33;;;;;;;30.44;48.02;99313.28;1822799;77;20961;-66
2021/06/26 10:11:50;;;;;;;22.00;14.18;;;;;;;30.35;44.87;99309.12;1822863;78;21116;-66
2021/06/26 10:14:17;;;;;;;18.90;13.28;;;;;;;30.22;42.44;99302.29;1816301;77;21044;-67
2021/06/26 10:16:43;;;;;;;19.15;12.73;;;;;;;30.07;40.79;99309.72;1798994;78;21068;-68
2021/06/26 10:19:12;;;;;;;15.60;12.23;;;;;;;29.92;39.53;99306.78;1826333;77;21059;-67
2021/06/26 10:21:39;;;;;;;18.10;13.00;;;;;;;29.77;38.57;99305.18;1830341;77;21013;-67
2021/06/26 10:24:12;;;;;;;16.32;12.78;;;;;;;29.64;37.83;99305.17;1818501;78;21122;-66
2021/06/26 10:26:39;;;;;;;;;;;;;;;29.51;37.28;99298.02;1820316;77;21001;-67
2021/06/26 10:29:05;;;;;;;20.97;13.10;;;;;;;29.38;36.96;99285.14;1821070;77;20166;-69
2021/06/26 10:31:39;;;;;;;17.07;12.63;;;;;;;29.21;36.93;99295.34;1823230;77;21039;-68
2021/06/26 10:34:19;;;;;;;16.80;12.53;;;;;;;29.13;36.62;99285.08;1809517;77;21116;-67
2021/06/26 10:36:52;;;;;;;16.12;11.25;;;;;;;29.05;36.60;99284.39;1819856;77;22046;-68
2021/06/26 10:39:26;;;;;;;18.70;11.45;;;;;;;28.96;37.00;99275.53;1809157;77;21065;-71
2021/06/26 10:42:05;;;;;;;15.35;10.60;;;;;;;28.91;37.54;99271.51;1822593;77;21020;-68
2021/06/26 10:44:51;;;;;;;16.52;9.98;;;;;;;28.86;37.62;99268.05;1843835;77;21567;-72
2021/06/26 10:47:39;;;;;;;19.27;10.93;;;;;;;28.82;38.34;99246.00;1824650;77;21013;-71
2021/06/26 10:50:16;;;;;;;15.93;10.53;;;;;;;28.83;39.73;99247.05;1844664;77;21118;-70
2021/06/26 10:52:55;;;;;;;16.60;10.15;;;;;;;28.91;40.25;99248.27;1804129;77;20949;-70
2021/06/26 10:55:31;;;;;;;13.80;10.25;;;;;;;29.04;40.60;99239.84;1814636;77;21552;-71
2021/06/26 10:57:58;;;;;;;14.85;11.35;;;;;;;29.18;40.84;99241.23;1753654;80;21036;-70
2021/06/26 11:00:39;;;;;;;14.80;11.28;;;;;;;29.33;41.05;99235.45;1762140;79;21076;-72
2021/06/26 11:03:18;;;;;;;14.18;10.70;;;;;;;29.49;41.25;99248.82;1790030;79;21128;-71
2021/06/26 11:05:45;;;;;;;13.32;10.50;;;;;;;29.65;41.39;99260.25;1778526;79;21036;-71
2021/06/26 11:08:18;;;;;;;16.40;10.28;;;;;;;29.78;41.54;99262.98;1777339;79;21044;-71
2021/06/26 11:11:00;;;;;;;15.30;10.60;;;;;;;29.91;41.68;99268.19;1775190;79;21099;-71
2021/06/26 11:13:29;;;;;;;14.78;10.25;;;;;;;30.02;41.83;99276.16;1767346;79;21562;-71
2021/06/26 11:16:07;;;;;;;12.63;9.65;;;;;;;30.09;41.99;99263.66;1774830;79;21153;-70
2021/06/26 11:18:35;;;;;;;15.13;10.18;;;;;;;30.14;42.09;99263.55;1765661;80;20958;-71
2021/06/26 11:21:03;;;;;;;15.58;10.40;;;;;;;30.17;42.23;99264.31;1782003;79;21071;-71
2021/06/26 11:23:29;;;;;;;13.80;10.48;;;;;;;30.20;42.38;99261.50;1778629;79;21098;-71
2021/06/26 11:26:01;;;;;;;15.03;9.85;;;;;;;30.23;42.53;99265.55;1777636;79;21013;-70
2021/06/26 11:28:27;;;;;;;12.13;9.60;;;;;;;30.24;42.70;99261.13;1783582;79;21135;-71
2021/06/26 11:31:00;;;;;;;11.45;9.23;;;;;;;30.24;42.86;99263.87;1771841;79;21025;-70